Time;durP1;ratioP1;P1;durP2;ratioP2;P2;SDS_P1;SDS_P2;PMS_P1;PMS_P2;Temp;Humidity;BMP_temperature;BMP_pressure;BME280_temperature;BME280_humidity;BME280_pressure;Samples;Min_cycle;Max_cycle;Signal;HPM_P1;HPM_P2
2023/07/23 00:02:21;;;;;;;8.53;4.27;;;15.20;26.50;;;;;;5043104;28;46438;-78
2023/07/23 00:04:47;;;;;;;16.77;4.20;;;15.10;26.70;;;;;;5059554;28;46753;-77
2023/07/23 00:07:13;;;;;;;8.70;4.37;;;15.10;26.80;;;;;;5061479;28;46337;-77
2023/07/23 00:09:38;;;;;;;9.40;3.97;;;15.10;26.90;;;;;;5043013;28;48354;-77
2023/07/23 00:12:04;;;;;;;12.70;4.67;;;15.00;27.00;;;;;;5062599;28;45778;-76
2023/07/23 00:14:30;;;;;;;9.80;4.20;;;15.00;27.20;;;;;;5058430;28;45891;-77
2023/07/23 00:16:55;;;;;;;6.60;3.93;;;14.90;27.30;;;;;;5062354;28;46409;-78
2023/07/23 00:19:21;;;;;;;10.93;4.13;;;14.90;27.50;;;;;;5061737;28;46397;-80
2023/07/23 00:21:50;;;;;;;8.70;3.70;;;14.90;27.70;;;;;;5059032;28;45936;-78
2023/07/23 00:24:17;;;;;;;8.13;4.30;;;14.80;27.80;;;;;;5061679;28;46622;-78
2023/07/23 00:26:42;;;;;;;7.40;3.90;;;14.80;28.00;;;;;;5065661;28;46433;-78
2023/07/23 00:29:08;;;;;;;6.73;4.10;;;14.70;28.10;;;;;;5067501;28;47348;-79
2023/07/23 00:31:34;;;;;;;7.43;4.23;;;14.70;28.40;;;;;;5070894;28;46436;-79
2023/07/23 00:33:59;;;;;;;10.23;3.90;;;14.70;28.60;;;;;;5053580;28;46552;-79
2023/07/23 00:36:25;;;;;;;9.30;4.60;;;14.60;28.60;;;;;;5068899;28;46518;-78
2023/07/23 00:38:50;;;;;;;11.87;4.50;;;14.60;28.90;;;;;;5069272;28;46721;-79
2023/07/23 00:41:17;;;;;;;8.40;4.40;;;14.60;29.00;;;;;;5071288;28;46585;-78
2023/07/23 00:43:43;;;;;;;8.50;4.80;;;14.60;28.50;;;;;;5070798;28;46407;-77
2023/07/23 00:46:09;;;;;;;7.63;4.70;;;14.60;29.40;;;;;;5069534;28;46419;-78
2023/07/23 00:48:34;;;;;;;14.33;3.97;;;14.60;29.30;;;;;;5051870;28;48372;-79
2023/07/23 00:51:00;;;;;;;9.60;4.43;;;14.80;29.50;;;;;;5053251;28;46486;-79
2023/07/23 00:53:27;;;;;;;12.27;5.10;;;14.70;29.40;;;;;;5047441;28;46424;-78
2023/07/23 00:55:53;;;;;;;7.47;3.70;;;14.70;29.40;;;;;;5061090;28;46545;-78
2023/07/23 00:58:20;;;;;;;8.10;4.40;;;14.90;29.70;;;;;;5065345;28;47484;-80
2023/07/23 01:00:46;;;;;;;8.00;4.50;;;14.80;29.50;;;;;;5063782;28;46879;-77
2023/07/23 01:03:11;;;;;;;10.93;3.80;;;14.90;29.60;;;;;;5061080;28;46510;-78
2023/07/23 01:05:41;;;;;;;9.50;3.83;;;14.90;28.70;;;;;;5062603;28;46893;-77
2023/07/23 01:08:07;;;;;;;11.83;4.10;;;14.90;29.60;;;;;;5061998;28;46423;-78
2023/07/23 01:10:34;;;;;;;6.00;3.70;;;14.90;29.60;;;;;;5045738;28;46391;-77
2023/07/23 01:13:00;;;;;;;10.40;3.27;;;14.90;29.60;;;;;;5065730;28;46457;-77
2023/07/23 01:15:27;;;;;;;6.37;3.60;;;14.80;29.00;;;;;;5062559;28;46542;-78
2023/07/23 01:17:54;;;;;;;8.67;4.40;;;14.80;29.60;;;;;;5066437;28;46537;-78
2023/07/23 01:20:20;;;;;;;13.33;4.10;;;14.70;29.80;;;;;;5065286;28;46272;-79
2023/07/23 01:22:45;;;;;;;8.77;3.77;;;14.70;30.10;;;;;;5062751;28;46472;-77
2023/07/23 01:25:11;;;;;;;8.30;4.37;;;14.70;30.30;;;;;;5068742;28;46704;-78
2023/07/23 01:27:37;;;;;;;8.47;4.00;;;14.70;30.50;;;;;;5067476;28;47024;-78
2023/07/23 01:30:03;;;;;;;6.43;3.70;;;14.60;30.60;;;;;;5045213;28;46772;-78
2023/07/23 01:32:29;;;;;;;7.90;4.40;;;14.60;30.60;;;;;;5061304;28;45923;-78
2023/07/23 01:34:58;;;;;;;6.80;4.27;;;14.60;30.80;;;;;;5044499;28;46546;-78
2023/07/23 01:37:24;;;;;;;8.30;4.50;;;14.60;30.90;;;;;;5064238;28;46471;-78
2023/07/23 01:39:50;;;;;;;7.90;4.10;;;14.60;31.00;;;;;;5064096;28;46590;-78
2023/07/23 01:42:16;;;;;;;6.90;4.10;;;14.60;31.00;;;;;;5047305;28;46607;-77
2023/07/23 01:44:42;;;;;;;6.93;3.37;;;14.60;31.10;;;;;;5063394;28;46471;-78
2023/07/23 01:47:09;;;;;;;6.40;3.67;;;14.60;31.30;;;;;;5063624;28;46748;-79
2023/07/23 01:49:34;;;;;;;8.20;4.00;;;14.60;31.50;;;;;;5063211;28;46743;-78
2023/07/23 01:52:00;;;;;;;7.50;3.83;;;14.60;31.50;;;;;;5063539;28;46466;-78
2023/07/23 01:54:25;;;;;;;9.43;3.97;;;14.60;31.60;;;;;;5063765;28;46558;-78
2023/07/23 01:56:52;;;;;;;9.63;3.87;;;14.70;31.60;;;;;;5064617;28;46817;-78
2023/07/23 01:59:17;;;;;;;6.57;3.50;;;14.70;31.60;;;;;;5062831;28;46519;-77
2023/07/23 02:01:43;;;;;;;7.90;3.83;;;14.70;31.50;;;;;;5063313;28;46579;-78
2023/07/23 02:04:08;;;;;;;7.57;4.20;;;14.70;31.60;;;;;;5060646;28;47417;-78
2023/07/23 02:06:36;;;;;;;8.40;4.03;;;14.90;31.90;;;;;;5063954;28;46350;-78
2023/07/23 02:09:03;;;;;;;9.93;4.70;;;14.70;31.70;;;;;;5063316;28;46517;-77
2023/07/23 02:11:28;;;;;;;6.40;3.63;;;14.70;31.90;;;;;;5063189;28;46583;-76
2023/07/23 02:13:54;;;;;;;7.00;4.07;;;14.70;31.90;;;;;;5064158;28;46516;-78
2023/07/23 02:16:20;;;;;;;7.23;3.80;;;14.60;32.00;;;;;;5060223;28;48492;-79
2023/07/23 02:18:46;;;;;;;7.67;4.23;;;14.60;32.10;;;;;;5063768;28;46753;-77
2023/07/23 02:21:12;;;;;;;9.60;5.10;;;14.70;32.20;;;;;;5062671;28;46800;-77
2023/07/23 02:23:37;;;;;;;7.97;4.40;;;14.70;32.20;;;;;;5044852;28;46340;-78
2023/07/23 02:26:03;;;;;;;6.20;3.90;;;14.70;32.30;;;;;;5062253;28;46390;-77
2023/07/23 02:28:29;;;;;;;8.17;4.07;;;14.70;32.30;;;;;;5040124;28;46850;-78
2023/07/23 02:30:59;;;;;;;6.90;3.80;;;14.70;32.20;;;;;;5061676;28;46479;-77
2023/07/23 02:33:25;;;;;;;5.80;3.53;;;14.70;32.20;;;;;;5065592;28;46888;-78
2023/07/23 02:35:51;;;;;;;12.00;4.20;;;14.70;32.20;;;;;;5059250;28;48075;-78
2023/07/23 02:38:17;;;;;;;8.67;4.13;;;14.70;32.20;;;;;;5061070;28;46396;-79
2023/07/23 02:40:43;;;;;;;8.97;4.20;;;14.70;32.30;;;;;;5045233;28;46826;-79
2023/07/23 02:43:12;;;;;;;6.73;3.67;;;14.70;32.50;;;;;;5062565;28;46504;-78
2023/07/23 02:45:40;;;;;;;9.27;3.80;;;14.60;32.40;;;;;;5063555;28;46589;-80
2023/07/23 02:48:07;;;;;;;7.13;4.13;;;14.60;32.40;;;;;;5063149;28;45792;-79
2023/07/23 02:50:32;;;;;;;6.87;4.10;;;14.60;32.50;;;;;;5064574;28;46547;-78
2023/07/23 02:52:58;;;;;;;9.70;3.90;;;14.60;32.50;;;;;;5060155;28;46582;-78
2023/07/23 02:55:25;;;;;;;7.90;4.37;;;14.60;32.70;;;;;;5065819;28;46504;-78
2023/07/23 02:57:51;;;;;;;9.10;3.97;;;14.60;32.70;;;;;;5061175;28;46375;-76
2023/07/23 03:00:20;;;;;;;7.10;3.53;;;14.60;32.70;;;;;;5061545;28;46583;-77
2023/07/23 03:02:47;;;;;;;7.67;3.93;;;14.50;32.80;;;;;;5062129;28;46946;-79
2023/07/23 03:05:13;;;;;;;9.60;3.80;;;14.50;32.90;;;;;;5062466;28;46998;-78
2023/07/23 03:07:38;;;;;;;6.40;4.17;;;14.50;33.00;;;;;;5048085;28;46664;-78
2023/07/23 03:10:04;;;;;;;7.27;3.40;;;14.60;33.00;;;;;;5062200;28;46384;-77
2023/07/23 03:12:31;;;;;;;7.23;3.93;;;14.50;32.90;;;;;;5061613;28;46472;-77
2023/07/23 03:14:57;;;;;;;8.27;4.03;;;14.50;33.00;;;;;;5043861;28;47899;-78
2023/07/23 03:17:22;;;;;;;9.40;4.60;;;14.50;32.90;;;;;;5044296;28;46427;-78
2023/07/23 03:19:48;;;;;;;7.57;3.87;;;14.50;33.00;;;;;;5061123;28;46826;-78
2023/07/23 03:22:13;;;;;;;8.17;3.87;;;14.60;33.00;;;;;;5061350;28;46508;-78
2023/07/23 03:24:39;;;;;;;5.40;3.10;;;14.50;32.80;;;;;;5038972;28;48961;-78
2023/07/23 03:27:05;;;;;;;6.50;3.63;;;14.50;32.90;;;;;;5058450;28;46495;-77
2023/07/23 03:29:31;;;;;;;6.73;3.50;;;14.70;33.20;;;;;;5061886;28;46578;-79
2023/07/23 03:31:56;;;;;;;7.07;3.40;;;14.50;33.00;;;;;;5060208;28;46533;-80
2023/07/23 03:34:22;;;;;;;8.80;3.73;;;14.50;33.00;;;;;;5042530;28;49031;-76
2023/07/23 03:36:48;;;;;;;6.97;4.17;;;14.50;33.10;;;;;;5043899;28;46669;-77
2023/07/23 03:39:16;;;;;;;5.90;3.63;;;14.50;33.00;;;;;;5060484;28;46485;-79
2023/07/23 03:41:49;;;;;;;7.80;3.70;;;14.50;33.00;;;;;;5061503;28;46300;-78
2023/07/23 03:44:15;;;;;;;7.60;4.00;;;14.50;33.10;;;;;;5042702;28;46406;-80
2023/07/23 03:46:45;;;;;;;6.60;3.50;;;14.50;33.10;;;;;;5059404;28;46730;-79
2023/07/23 03:49:11;;;;;;;6.53;3.33;;;14.50;33.10;;;;;;5058994;28;46494;-77
2023/07/23 03:51:37;;;;;;;7.23;3.57;;;14.60;33.10;;;;;;5061827;28;46562;-78
2023/07/23 03:54:02;;;;;;;6.43;3.73;;;14.60;33.00;;;;;;5063191;28;46415;-77
2023/07/23 03:56:28;;;;;;;5.47;3.30;;;14.70;33.10;;;;;;5045279;28;46506;-78
2023/07/23 03:58:54;;;;;;;7.37;3.83;;;14.70;32.80;;;;;;5045052;28;46587;-78
2023/07/23 04:01:19;;;;;;;5.97;3.40;;;14.80;32.80;;;;;;5041835;28;46546;-76
2023/07/23 04:03:45;;;;;;;8.37;3.70;;;14.90;31.70;;;;;;5059974;28;46367;-80
2023/07/23 04:06:11;;;;;;;6.90;4.13;;;14.90;32.70;;;;;;5062990;28;46543;-77
2023/07/23 04:08:36;;;;;;;7.43;3.43;;;15.00;32.60;;;;;;5064614;28;46739;-79
2023/07/23 04:11:02;;;;;;;8.23;3.87;;;15.00;32.50;;;;;;5065078;28;46275;-79
2023/07/23 04:13:27;;;;;;;6.17;3.60;;;15.10;32.50;;;;;;5064039;28;47163;-81
2023/07/23 04:15:53;;;;;;;6.03;3.47;;;15.10;31.10;;;;;;5052438;28;46487;-80
2023/07/23 04:18:19;;;;;;;8.47;3.20;;;15.20;32.20;;;;;;5064804;28;45976;-80
2023/07/23 04:20:44;;;;;;;7.73;3.60;;;15.20;31.90;;;;;;5065505;28;46449;-79
2023/07/23 04:23:10;;;;;;;6.47;3.77;;;15.30;32.80;;;;;;5064018;28;46540;-81
2023/07/23 04:25:35;;;;;;;10.60;3.33;;;15.40;30.30;;;;;;5065565;28;46732;-80
2023/07/23 04:28:01;;;;;;;8.60;3.77;;;15.40;31.10;;;;;;5064623;28;46567;-78
2023/07/23 04:30:30;;;;;;;7.13;3.77;;;15.60;31.00;;;;;;5066913;28;45916;-79
2023/07/23 04:32:56;;;;;;;5.67;3.20;;;15.60;30.70;;;;;;5064258;28;48400;-82
2023/07/23 04:35:21;;;;;;;7.30;3.97;;;15.70;29.60;;;;;;5063859;28;46626;-78
2023/07/23 04:37:47;;;;;;;8.73;3.70;;;15.80;30.20;;;;;;5062115;28;46446;-78
2023/07/23 04:40:12;;;;;;;6.23;3.60;;;15.90;31.50;;;;;;5045126;28;46663;-81
2023/07/23 04:42:38;;;;;;;8.00;3.57;;;16.00;31.60;;;;;;5063088;28;46641;-80
2023/07/23 04:45:04;;;;;;;5.20;2.97;;;16.10;30.50;;;;;;5062329;28;46463;-79
2023/07/23 04:47:29;;;;;;;6.40;3.63;;;16.20;30.00;;;;;;5064079;28;46579;-78
2023/07/23 04:49:57;;;;;;;6.57;3.37;;;16.30;29.80;;;;;;5065427;28;46498;-77
2023/07/23 04:52:23;;;;;;;7.73;3.30;;;16.50;29.40;;;;;;5062750;28;47149;-77
2023/07/23 04:54:48;;;;;;;11.23;3.40;;;16.60;29.00;;;;;;5064124;28;46703;-77
2023/07/23 04:57:14;;;;;;;8.00;3.63;;;16.70;28.60;;;;;;5065841;27;46585;-78
2023/07/23 04:59:39;;;;;;;12.37;3.77;;;16.90;28.40;;;;;;5063750;28;46605;-77
2023/07/23 05:02:05;;;;;;;6.10;3.47;;;17.10;28.00;;;;;;5062153;28;46707;-77
2023/07/23 05:04:31;;;;;;;7.20;3.33;;;17.90;27.10;;;;;;5061153;28;46448;-77
2023/07/23 05:06:56;;;;;;;6.67;3.23;;;19.60;25.10;;;;;;5065114;28;46337;-78
2023/07/23 05:09:22;;;;;;;8.33;3.40;;;21.10;22.80;;;;;;5044101;28;46437;-78
2023/07/23 05:11:48;;;;;;;10.03;3.30;;;22.40;20.40;;;;;;5064121;28;46655;-79
2023/07/23 05:14:15;;;;;;;9.93;3.60;;;23.50;18.00;;;;;;5041770;28;46636;-78
2023/07/23 05:16:40;;;;;;;6.43;3.43;;;24.50;15.70;;;;;;5063556;28;46518;-79
2023/07/23 05:19:06;;;;;;;9.13;3.17;;;25.30;13.80;;;;;;5065809;28;46413;-78
2023/07/23 05:21:34;;;;;;;5.27;3.30;;;25.90;12.00;;;;;;5044337;28;48387;-79
2023/07/23 05:24:01;;;;;;;7.90;3.20;;;26.50;10.10;;;;;;5064544;28;46458;-78
2023/07/23 05:26:27;;;;;;;8.43;3.37;;;27.40;7.00;;;;;;5063106;28;46502;-79
2023/07/23 05:28:52;;;;;;;4.43;2.70;;;27.40;7.70;;;;;;5043462;28;46295;-78
2023/07/23 05:31:19;;;;;;;6.40;3.10;;;27.80;6.90;;;;;;5061140;28;47274;-78
2023/07/23 05:33:45;;;;;;;5.67;2.80;;;28.60;4.50;;;;;;5061999;28;46486;-78
2023/07/23 05:36:10;;;;;;;5.40;3.20;;;28.60;4.50;;;;;;5062958;28;46315;-79
2023/07/23 05:38:36;;;;;;;6.33;3.20;;;28.80;3.30;;;;;;5064626;28;46662;-79
2023/07/23 05:41:02;;;;;;;7.53;3.17;;;29.20;2.20;;;;;;5059040;28;49570;-77
2023/07/23 05:43:29;;;;;;;5.53;3.10;;;29.30;1.30;;;;;;5060540;28;46379;-78
2023/07/23 05:45:55;;;;;;;7.20;2.90;;;29.30;1.00;;;;;;5062214;28;46450;-76
2023/07/23 05:48:21;;;;;;;7.30;3.13;;;29.80;1.00;;;;;;5060716;28;46961;-78
2023/07/23 05:50:46;;;;;;;6.03;2.97;;;29.70;1.00;;;;;;5048895;28;48921;-77
2023/07/23 05:53:12;;;;;;;11.13;2.77;;;29.70;1.00;;;;;;5061676;28;46427;-77
2023/07/23 05:55:37;;;;;;;5.80;3.20;;;29.70;1.00;;;;;;5061958;28;46462;-76
2023/07/23 05:58:03;;;;;;;5.40;2.90;;;30.10;1.00;;;;;;5064574;28;46411;-79
2023/07/23 06:00:28;;;;;;;4.20;2.40;;;30.50;1.00;;;;;;5060995;28;47025;-77
2023/07/23 06:02:55;;;;;;;5.00;2.60;;;30.90;1.00;;;;;;5060270;28;45809;-77
2023/07/23 06:05:20;;;;;;;4.97;3.13;;;31.10;1.00;;;;;;5057124;28;45934;-77
2023/07/23 06:07:46;;;;;;;4.40;2.60;;;31.20;1.00;;;;;;5065782;28;46313;-80
2023/07/23 06:10:11;;;;;;;8.50;2.87;;;31.30;1.00;;;;;;5062886;28;46301;-79
2023/07/23 06:12:37;;;;;;;4.50;2.67;;;31.50;1.00;;;;;;5068548;28;46503;-78
2023/07/23 06:15:03;;;;;;;4.80;2.77;;;31.10;1.00;;;;;;5043031;28;46389;-77
2023/07/23 06:17:28;;;;;;;7.27;3.90;;;30.60;1.00;;;;;;5043659;28;46522;-77
2023/07/23 06:19:54;;;;;;;6.77;3.10;;;29.70;1.00;;;;;;5061951;28;46552;-78
2023/07/23 06:22:19;;;;;;;5.30;2.83;;;28.80;1.00;;;;;;5059974;28;46663;-79
2023/07/23 06:24:45;;;;;;;7.33;2.70;;;28.20;2.20;;;;;;5060441;28;46598;-77
2023/07/23 06:27:10;;;;;;;7.70;3.10;;;27.70;3.40;;;;;;5061773;28;46417;-77
2023/07/23 06:29:36;;;;;;;4.87;2.80;;;27.40;4.20;;;;;;5060988;28;47422;-79
2023/07/23 06:32:02;;;;;;;6.57;2.47;;;27.00;4.50;;;;;;5060272;28;46613;-77
2023/07/23 06:34:27;;;;;;;5.53;2.63;;;26.70;4.40;;;;;;5059378;28;46261;-78
2023/07/23 06:36:53;;;;;;;4.63;2.50;;;26.60;4.30;;;;;;5059988;28;46794;-78
2023/07/23 06:39:20;;;;;;;4.73;2.63;;;26.60;4.30;;;;;;5060130;28;46693;-77
2023/07/23 06:41:45;;;;;;;6.50;2.40;;;26.40;4.20;;;;;;5061356;28;46556;-80
2023/07/23 06:44:11;;;;;;;9.70;3.03;;;26.30;4.20;;;;;;5061082;28;46522;-78
2023/07/23 06:46:36;;;;;;;6.40;2.97;;;26.20;4.10;;;;;;5043971;28;46730;-81
2023/07/23 06:49:02;;;;;;;4.20;2.27;;;26.10;5.00;;;;;;5061616;28;46499;-80
2023/07/23 06:51:27;;;;;;;6.40;2.87;;;26.10;4.00;;;;;;5061730;28;46433;-81
2023/07/23 06:53:53;;;;;;;7.77;2.50;;;26.20;4.10;;;;;;5041838;28;46527;-80
2023/07/23 06:56:19;;;;;;;6.17;2.30;;;26.20;4.20;;;;;;5062601;28;46548;-81
2023/07/23 06:58:46;;;;;;;6.33;2.67;;;26.30;5.10;;;;;;5055942;28;48691;-79
2023/07/23 07:01:11;;;;;;;6.73;2.70;;;26.40;4.20;;;;;;5061352;28;46434;-78
2023/07/23 07:03:37;;;;;;;6.00;2.87;;;26.50;2.20;;;;;;5054597;28;46434;-80
2023/07/23 07:06:04;;;;;;;7.13;2.70;;;26.50;3.00;;;;;;5058592;28;46745;-80
2023/07/23 07:08:29;;;;;;;6.77;2.50;;;26.50;2.70;;;;;;5041624;28;48605;-79
2023/07/23 07:11:03;;;;;;;7.50;2.97;;;26.50;2.40;;;;;;5059372;28;46523;-81
2023/07/23 07:13:30;;;;;;;6.97;2.27;;;26.50;2.10;;;;;;5057852;28;46517;-78
2023/07/23 07:15:56;;;;;;;5.50;2.90;;;;;;;;;;5059591;28;45982;-84
2023/07/23 07:18:24;;;;;;;4.57;2.73;;;26.50;1.00;;;;;;5061360;28;47646;-82
2023/07/23 07:20:58;;;;;;;4.33;2.60;;;26.50;1.50;;;;;;5060562;28;46637;-82
2023/07/23 07:23:24;;;;;;;4.57;2.50;;;26.60;1.20;;;;;;5061810;28;46670;-78
2023/07/23 07:25:50;;;;;;;4.50;2.70;;;26.60;1.00;;;;;;5059845;28;45983;-82
2023/07/23 07:28:16;;;;;;;4.63;2.53;;;26.70;1.00;;;;;;5061378;28;48122;-86
2023/07/23 07:30:41;;;;;;;8.00;2.53;;;26.70;1.00;;;;;;5040933;28;46541;-83
2023/07/23 07:33:07;;;;;;;8.73;2.70;;;26.60;1.00;;;;;;5057442;28;46415;-79
2023/07/23 07:35:33;;;;;;;5.67;3.00;;;26.60;1.00;;;;;;5060992;28;46593;-79
2023/07/23 07:37:58;;;;;;;5.63;2.70;;;26.70;1.00;;;;;;5061585;28;47681;-82
2023/07/23 07:40:24;;;;;;;5.70;2.27;;;26.70;1.00;;;;;;5066113;28;46559;-79
2023/07/23 07:42:49;;;;;;;4.10;2.37;;;26.80;1.00;;;;;;5064315;28;45860;-80
2023/07/23 07:45:15;;;;;;;5.20;2.97;;;;;;;;;;5068147;28;46483;-81
2023/07/23 07:47:41;;;;;;;10.27;2.93;;;26.90;1.00;;;;;;5069551;28;46869;-81
2023/07/23 07:50:08;;;;;;;9.50;2.70;;;27.20;1.00;;;;;;5065593;28;46409;-80
2023/07/23 07:52:34;;;;;;;6.07;2.90;;;;;;;;;;5046666;28;46419;-79
2023/07/23 07:55:00;;;;;;;4.60;2.33;;;27.10;1.00;;;;;;5050473;28;46372;-78
2023/07/23 07:57:26;;;;;;;5.37;2.57;;;27.20;1.00;;;;;;5068548;28;46303;-84
2023/07/23 07:59:52;;;;;;;9.10;3.07;;;27.00;1.00;;;;;;5063181;28;46364;-80
2023/07/23 08:02:18;;;;;;;4.83;2.93;;;27.10;1.00;;;;;;5065961;28;46621;-82
2023/07/23 08:04:44;;;;;;;5.03;3.03;;;27.10;1.00;;;;;;5065685;28;46392;-79
2023/07/23 08:07:10;;;;;;;6.00;3.17;;;27.00;1.00;;;;;;5066105;28;46897;-79
2023/07/23 08:09:39;;;;;;;8.93;2.70;;;27.10;1.00;;;;;;5062630;28;46532;-82
2023/07/23 08:12:06;;;;;;;6.83;2.97;;;27.10;1.00;;;;;;5062537;28;45856;-81
2023/07/23 08:14:33;;;;;;;7.60;2.60;;;27.30;1.00;;;;;;5064077;28;46267;-81
2023/07/23 08:16:59;;;;;;;5.00;2.77;;;27.30;1.00;;;;;;5062010;28;46381;-82
2023/07/23 08:19:25;;;;;;;4.77;2.67;;;27.40;1.00;;;;;;5064821;28;46418;-82
2023/07/23 08:21:50;;;;;;;7.47;3.13;;;27.50;1.00;;;;;;5063259;28;46558;-81
2023/07/23 08:24:16;;;;;;;7.50;2.70;;;27.40;1.00;;;;;;5063758;28;46647;-82
2023/07/23 08:26:45;;;;;;;6.87;2.53;;;27.40;1.00;;;;;;5061899;28;46228;-81
2023/07/23 08:29:13;;;;;;;5.40;2.90;;;27.40;1.00;;;;;;5064320;28;46515;-82
2023/07/23 08:31:39;;;;;;;6.17;2.67;;;27.40;1.00;;;;;;5063827;28;45749;-81
2023/07/23 08:34:04;;;;;;;6.33;2.80;;;27.50;1.00;;;;;;5063595;28;45761;-80
2023/07/23 08:36:31;;;;;;;7.27;2.77;;;27.50;1.00;;;;;;5067047;27;46494;-82
2023/07/23 08:38:57;;;;;;;4.30;2.47;;;27.70;1.00;;;;;;5066389;28;46395;-82
2023/07/23 08:41:48;;;;;;;6.90;3.40;;;27.80;1.00;;;;;;5064763;28;45908;-79
2023/07/23 08:44:36;;;;;;;25.53;9.00;;;27.60;1.00;;;;;;5070986;28;46752;-80
2023/07/23 08:47:12;;;;;;;26.00;9.73;;;27.50;1.00;;;;;;5064613;28;46920;-79
2023/07/23 08:49:42;;;;;;;18.10;7.00;;;27.60;1.00;;;;;;5063678;27;46809;-81
2023/07/23 08:52:11;;;;;;;14.20;6.00;;;27.50;1.00;;;;;;5063370;28;46474;-82
2023/07/23 08:54:37;;;;;;;6.30;3.23;;;27.50;1.00;;;;;;5064080;28;46455;-81
2023/07/23 08:57:03;;;;;;;12.77;5.63;;;27.70;1.00;;;;;;5063077;28;46482;-81
2023/07/23 08:59:31;;;;;;;6.90;3.43;;;27.80;1.00;;;;;;5065389;28;46528;-81
2023/07/23 09:01:58;;;;;;;6.90;3.60;;;27.90;1.00;;;;;;5044876;28;46588;-79
2023/07/23 09:04:23;;;;;;;7.57;3.00;;;28.10;1.00;;;;;;5061966;28;46721;-81
2023/07/23 09:06:51;;;;;;;8.53;3.07;;;28.30;1.00;;;;;;5061561;28;46483;-80
2023/07/23 09:09:18;;;;;;;4.83;2.73;;;28.30;1.00;;;;;;5060974;28;46494;-82
2023/07/23 09:11:43;;;;;;;5.83;3.30;;;28.10;1.00;;;;;;5064367;28;47047;-81
2023/07/23 09:14:11;;;;;;;4.67;2.80;;;27.70;1.00;;;;;;5045416;28;46967;-80
2023/07/23 09:16:39;;;;;;;5.10;2.47;;;27.70;1.00;;;;;;5046054;28;47086;-81
2023/07/23 09:19:07;;;;;;;5.47;2.87;;;27.90;1.00;;;;;;5064297;28;46445;-81
2023/07/23 09:21:34;;;;;;;6.13;2.73;;;27.90;1.00;;;;;;5066114;28;46479;-83
2023/07/23 09:24:02;;;;;;;6.60;2.90;;;27.80;1.00;;;;;;5066072;28;46474;-81
2023/07/23 09:26:28;;;;;;;7.73;3.30;;;27.90;1.00;;;;;;5062118;28;46444;-81
2023/07/23 09:28:57;;;;;;;5.40;2.87;;;27.90;1.00;;;;;;5062497;28;46466;-80
2023/07/23 09:31:29;;;;;;;11.30;3.13;;;28.00;1.00;;;;;;5062010;28;46829;-80
2023/07/23 09:33:56;;;;;;;116.80;42.07;;;28.20;1.00;;;;;;5066712;28;46562;-81
2023/07/23 09:36:23;;;;;;;16.40;7.80;;;28.20;1.00;;;;;;5064330;28;47229;-81
2023/07/23 09:39:09;;;;;;;11.37;5.53;;;28.30;1.00;;;;;;5063692;28;46602;-81
2023/07/23 09:41:37;;;;;;;10.60;5.00;;;28.30;1.00;;;;;;5064758;28;46699;-81
2023/07/23 09:44:07;;;;;;;7.90;2.90;;;28.10;1.00;;;;;;5061615;28;46467;-81
2023/07/23 09:46:33;;;;;;;7.53;3.30;;;27.80;1.00;;;;;;5060819;28;49194;-79
2023/07/23 09:48:59;;;;;;;7.90;3.43;;;27.70;1.00;;;;;;5064881;28;46533;-80
2023/07/23 09:51:25;;;;;;;6.10;3.10;;;27.60;1.00;;;;;;5065199;28;46116;-78
2023/07/23 09:53:51;;;;;;;4.93;2.90;;;27.70;1.00;;;;;;5064336;28;46423;-81
2023/07/23 09:56:18;;;;;;;7.27;3.83;;;27.70;1.00;;;;;;5045534;28;48394;-80
2023/07/23 09:58:47;;;;;;;6.20;3.57;;;27.60;1.00;;;;;;5063116;28;46432;-81
2023/07/23 10:01:14;;;;;;;5.97;3.17;;;27.50;1.00;;;;;;5062648;28;46834;-81
2023/07/23 10:03:40;;;;;;;8.17;4.20;;;27.30;1.00;;;;;;5056870;28;46534;-83
2023/07/23 10:06:11;;;;;;;12.00;4.30;;;27.30;1.00;;;;;;5060370;28;46484;-83
2023/07/23 10:08:42;;;;;;;7.83;3.90;;;27.50;1.00;;;;;;5060838;28;45978;-82
2023/07/23 10:11:11;;;;;;;8.73;3.57;;;27.50;1.00;;;;;;5060076;28;45985;-82
2023/07/23 10:13:38;;;;;;;7.23;4.03;;;27.70;1.00;;;;;;5058553;28;46482;-80
2023/07/23 10:16:26;;;;;;;6.30;3.70;;;27.70;1.00;;;;;;5062323;28;47381;-81
2023/07/23 10:18:53;;;;;;;11.97;3.40;;;27.90;1.00;;;;;;5060776;28;46412;-81
2023/07/23 10:21:19;;;;;;;7.57;4.10;;;28.00;1.00;;;;;;5060318;28;46485;-82
2023/07/23 10:23:56;;;;;;;8.93;4.33;;;28.00;1.00;;;;;;5059382;28;47265;-80
2023/07/23 10:26:25;;;;;;;9.40;4.10;;;28.00;1.00;;;;;;5064241;28;47386;-81
2023/07/23 10:29:13;;;;;;;8.60;3.80;;;28.20;1.00;;;;;;5060876;28;46542;-82
2023/07/23 10:31:40;;;;;;;7.77;4.00;;;28.60;1.00;;;;;;5061753;28;45848;-83
2023/07/23 10:34:27;;;;;;;6.80;3.63;;;28.60;1.00;;;;;;5063354;28;46517;-82
2023/07/23 10:37:12;;;;;;;7.47;3.83;;;28.60;1.00;;;;;;5044354;28;48588;-81
2023/07/23 10:39:43;;;;;;;8.37;3.63;;;28.80;1.00;;;;;;5062442;28;46433;-80
2023/07/23 10:42:09;;;;;;;7.23;3.33;;;28.70;1.00;;;;;;5057975;28;46566;-81
2023/07/23 10:44:38;;;;;;;7.90;4.27;;;28.90;1.00;;;;;;5058234;28;46839;-80
2023/07/23 10:47:33;;;;;;;8.57;3.97;;;29.20;1.00;;;;;;5062998;28;46713;-81
2023/07/23 10:50:12;;;;;;;8.53;4.10;;;29.70;1.00;;;;;;5040930;28;46742;-80
2023/07/23 10:52:38;;;;;;;19.43;3.93;;;29.70;1.00;;;;;;5060772;28;46524;-81
2023/07/23 10:55:04;;;;;;;8.80;4.07;;;29.80;1.00;;;;;;5061594;28;46584;-82
2023/07/23 10:57:31;;;;;;;7.10;3.80;;;29.70;1.00;;;;;;5060491;28;46553;-80
2023/07/23 10:59:56;;;;;;;9.20;3.43;;;29.50;1.00;;;;;;5061180;28;46778;-82
2023/07/23 11:02:26;;;;;;;9.60;4.53;;;28.90;1.00;;;;;;5062137;28;46532;-80
2023/07/23 11:04:57;;;;;;;7.90;4.10;;;28.40;1.00;;;;;;5062545;28;46924;-81
2023/07/23 11:07:27;;;;;;;10.50;4.20;;;28.40;1.00;;;;;;5060775;28;46539;-83
2023/07/23 11:09:54;;;;;;;8.57;4.73;;;28.70;1.00;;;;;;5062132;28;45878;-81
2023/07/23 11:12:22;;;;;;;10.57;5.10;;;28.60;1.00;;;;;;5062057;28;46367;-80
2023/07/23 11:14:48;;;;;;;9.23;4.13;;;28.40;1.00;;;;;;5041984;28;46516;-79
2023/07/23 11:17:13;;;;;;;7.60;4.57;;;28.40;1.00;;;;;;5063301;28;46010;-81
2023/07/23 11:19:44;;;;;;;10.43;4.90;;;28.30;1.00;;;;;;5060675;28;45891;-80
2023/07/23 11:22:11;;;;;;;10.07;5.00;;;28.20;1.00;;;;;;5059579;28;46745;-79
2023/07/23 11:24:37;;;;;;;9.60;4.50;;;28.40;1.00;;;;;;5061268;28;46510;-80
2023/07/23 11:27:03;;;;;;;10.83;4.03;;;28.40;1.00;;;;;;5059515;28;46522;-82
2023/07/23 11:29:29;;;;;;;10.07;4.80;;;28.60;1.00;;;;;;5062241;28;46503;-78
2023/07/23 11:31:56;;;;;;;9.10;4.30;;;28.30;1.00;;;;;;5061418;28;45877;-76
2023/07/23 11:34:24;;;;;;;11.10;4.93;;;28.10;1.00;;;;;;5059959;28;46895;-80
2023/07/23 11:36:53;;;;;;;10.70;6.13;;;28.40;1.00;;;;;;5062070;28;47001;-81
2023/07/23 11:39:19;;;;;;;9.97;5.63;;;28.80;1.00;;;;;;5059261;28;46423;-79
2023/07/23 11:41:45;;;;;;;9.10;4.90;;;29.00;1.00;;;;;;5042339;28;46534;-83
2023/07/23 11:44:11;;;;;;;10.33;5.50;;;29.00;1.00;;;;;;5060092;28;46715;-81
2023/07/23 11:46:38;;;;;;;9.17;4.57;;;28.80;1.00;;;;;;5041789;28;47673;-82
2023/07/23 11:49:12;;;;;;;8.40;5.00;;;29.00;1.00;;;;;;5043755;28;46781;-80
2023/07/23 11:51:39;;;;;;;8.33;4.60;;;28.60;1.00;;;;;;5062156;28;46652;-81
2023/07/23 11:54:10;;;;;;;12.00;4.63;;;28.60;1.00;;;;;;5061995;28;46352;-81
2023/07/23 11:56:38;;;;;;;11.40;5.63;;;28.70;1.00;;;;;;5065284;28;47369;-83
2023/07/23 11:59:05;;;;;;;10.30;5.27;;;28.80;1.00;;;;;;5058755;28;45892;-79
2023/07/23 12:01:30;;;;;;;9.67;5.00;;;28.60;1.00;;;;;;5066621;28;46447;-85
2023/07/23 12:04:00;;;;;;;8.50;5.30;;;29.20;1.00;;;;;;5062616;28;46462;-80
2023/07/23 12:06:31;;;;;;;10.20;4.90;;;29.30;1.00;;;;;;5059814;28;46432;-83
2023/07/23 12:08:57;;;;;;;10.30;4.77;;;27.80;1.00;;;;;;5042527;28;46480;-83
2023/07/23 12:11:25;;;;;;;9.60;5.23;;;29.40;1.00;;;;;;5061449;28;46550;-81
2023/07/23 12:13:53;;;;;;;8.37;4.83;;;29.60;1.00;;;;;;5064545;28;46650;-81
2023/07/23 12:16:47;;;;;;;10.83;5.87;;;29.60;1.00;;;;;;5062613;28;46542;-80
2023/07/23 12:19:15;;;;;;;12.60;6.20;;;29.60;1.00;;;;;;5062272;28;46427;-80
2023/07/23 12:21:43;;;;;;;11.57;6.00;;;29.40;1.00;;;;;;5042365;28;46366;-82
2023/07/23 12:24:26;;;;;;;11.73;5.50;;;29.30;1.00;;;;;;5062650;28;46623;-83
2023/07/23 12:26:56;;;;;;;10.17;5.50;;;29.20;1.00;;;;;;5062295;28;46701;-82
2023/07/23 12:29:23;;;;;;;10.40;5.47;;;28.90;1.00;;;;;;5063084;28;46455;-83
2023/07/23 12:32:10;;;;;;;9.67;4.97;;;29.10;1.00;;;;;;5065614;28;46119;-80
2023/07/23 12:34:37;;;;;;;11.07;5.83;;;29.40;1.00;;;;;;5065931;28;46455;-81
2023/07/23 12:37:03;;;;;;;9.73;5.50;;;29.80;1.00;;;;;;5065495;28;47420;-82
2023/07/23 12:39:28;;;;;;;9.80;5.20;;;29.70;1.00;;;;;;5065631;28;46783;-80
2023/07/23 12:41:54;;;;;;;9.37;5.47;;;29.70;1.00;;;;;;5066217;28;47425;-82
2023/07/23 12:44:19;;;;;;;18.23;7.00;;;29.80;1.00;;;;;;5066874;28;46850;-81
2023/07/23 12:46:45;;;;;;;12.93;6.40;;;29.80;1.00;;;;;;5062896;28;47660;-79
2023/07/23 12:49:11;;;;;;;13.00;6.67;;;29.60;1.00;;;;;;5061161;28;46598;-80
2023/07/23 12:51:36;;;;;;;16.47;7.57;;;29.40;1.00;;;;;;5064954;28;46572;-82
2023/07/23 12:54:02;;;;;;;13.87;7.70;;;29.30;1.00;;;;;;5062983;28;46507;-82